Time;durP1;ratioP1;P1;durP2;ratioP2;P2;SDS_P1;SDS_P2;PMS_P1;PMS_P2;Temp;Humidity;BMP_temperature;BMP_pressure;BME280_temperature;BME280_humidity;BME280_pressure;Samples;Min_cycle;Max_cycle;Signal;HPM_P1;HPM_P2
2023/08/07 00:01:11;;;;;;;5.87;1.03;;;;;;;-145.69;77.75;52179.03;5095629;28;20277;-81
2023/08/07 00:03:37;;;;;;;7.50;1.63;;;;;;;-145.69;77.54;52155.25;5097554;28;20194;-82
2023/08/07 00:06:04;;;;;;;2.43;1.67;;;;;;;-145.69;77.74;52173.09;5096876;28;20209;-81
2023/08/07 00:08:33;;;;;;;5.90;1.53;;;;;;;-145.69;76.52;52181.00;5095424;28;20393;-81
2023/08/07 00:11:05;;;;;;;3.50;1.53;;;;;;;-145.69;77.02;52190.91;5096936;28;20226;-81
2023/08/07 00:13:32;;;;;;;4.10;1.53;;;;;;;-145.69;77.35;52175.06;5097274;28;20198;-82
2023/08/07 00:15:58;;;;;;;5.87;1.60;;;;;;;-145.69;75.97;52161.19;5094894;28;20230;-82
2023/08/07 00:18:25;;;;;;;3.03;1.40;;;;;;;-145.69;73.59;52125.56;5094491;28;20205;-82
2023/08/07 00:20:51;;;;;;;2.50;1.63;;;;;;;-145.69;72.84;52143.38;5095488;28;20194;-82
2023/08/07 00:23:18;;;;;;;3.80;1.40;;;;;;;-145.69;72.41;52139.41;5096349;28;20217;-82
2023/08/07 00:25:46;;;;;;;2.10;1.53;;;;;;;-145.69;72.24;52135.47;5099738;28;20198;-82
2023/08/07 00:28:12;;;;;;;2.60;1.60;;;;;;;-145.69;72.03;52155.25;5094853;28;20259;-82
2023/08/07 00:30:39;;;;;;;3.10;1.40;;;;;;;-145.69;71.58;52169.13;5096743;28;20704;-82
2023/08/07 00:33:05;;;;;;;3.07;1.30;;;;;;;-145.69;71.85;52155.25;5097326;28;20210;-81
2023/08/07 00:35:32;;;;;;;3.10;1.40;;;;;;;-145.69;71.66;52143.38;5103026;28;20205;-83
2023/08/07 00:37:58;;;;;;;2.10;1.20;;;;;;;-145.69;71.79;52163.19;5106041;28;20198;-83
2023/08/07 00:40:25;;;;;;;4.10;1.13;;;;;;;-145.69;71.86;52127.53;5112693;28;20289;-82
2023/08/07 00:42:52;;;;;;;2.20;1.60;;;;;;;-145.69;71.39;52147.34;5105318;28;20206;-82
2023/08/07 00:45:19;;;;;;;2.70;1.63;;;;;;;-145.69;72.29;52149.31;5105467;28;20296;-82
2023/08/07 00:47:45;;;;;;;2.67;1.77;;;;;;;-145.69;72.09;52143.38;5101249;28;20553;-81
2023/08/07 00:50:13;;;;;;;3.10;1.50;;;;;;;-145.69;71.94;52151.28;5100717;28;20225;-82
2023/08/07 00:52:39;;;;;;;2.30;1.47;;;;;;;-145.69;72.04;52177.03;5103165;28;20194;-81
2023/08/07 00:55:06;;;;;;;5.67;1.90;;;;;;;-145.69;72.47;52159.22;5103525;28;20198;-82
2023/08/07 00:57:33;;;;;;;6.83;1.53;;;;;;;-145.69;72.56;52113.66;5100877;28;20206;-81
2023/08/07 01:00:02;;;;;;;2.27;1.40;;;;;;;-145.69;73.10;52163.19;5094838;28;20209;-82
2023/08/07 01:02:29;;;;;;;4.77;1.57;;;;;;;-145.69;74.08;52131.50;5100625;28;20231;-83
2023/08/07 01:04:55;;;;;;;6.43;1.80;;;;;;;-145.69;75.45;52151.28;5102483;28;20569;-82
2023/08/07 01:07:22;;;;;;;2.70;1.60;;;;;;;-145.69;74.72;52127.53;5102051;28;20213;-82
2023/08/07 01:09:48;;;;;;;3.60;1.63;;;;;;;-145.69;75.23;52186.94;5101263;28;20226;-82
2023/08/07 01:12:19;;;;;;;3.97;1.77;;;;;;;-145.69;75.90;52145.34;5101245;28;20209;-81
2023/08/07 01:14:52;;;;;;;7.40;1.70;;;;;;;-145.69;75.08;52163.19;5101091;28;20213;-82
2023/08/07 01:17:22;;;;;;;2.87;1.63;;;;;;;-145.69;75.13;52137.44;5100519;28;20194;-81
2023/08/07 01:19:51;;;;;;;3.27;1.60;;;;;;;-145.69;75.59;52167.13;5101850;28;20201;-82
2023/08/07 01:22:19;;;;;;;2.53;1.70;;;;;;;-145.69;74.85;52143.38;5101538;28;20199;-81
2023/08/07 01:24:47;;;;;;;2.73;1.80;;;;;;;-145.69;73.77;52163.19;5101514;28;20197;-82
2023/08/07 01:27:25;;;;;;;2.13;1.47;;;;;;;-145.69;71.89;52161.19;5101278;28;20202;-82
2023/08/07 01:29:55;;;;;;;5.83;2.00;;;;;;;-145.69;71.76;52155.25;5102158;28;20236;-79
2023/08/07 01:32:27;;;;;;;3.33;1.73;;;;;;;-145.69;71.67;52163.19;5101978;28;20190;-82
2023/08/07 01:34:57;;;;;;;2.53;2.00;;;;;;;-145.69;71.80;52147.34;5101084;28;20205;-82
2023/08/07 01:37:27;;;;;;;4.90;1.73;;;;;;;-145.69;72.45;52167.13;5100688;28;20217;-82
2023/08/07 01:39:56;;;;;;;3.23;1.70;;;;;;;-145.69;71.95;52163.19;5101971;28;20210;-82
2023/08/07 01:42:22;;;;;;;5.63;1.40;;;;;;;-145.69;72.89;52181.00;5098624;28;20190;-81
2023/08/07 01:44:48;;;;;;;2.40;1.47;;;;;;;-145.69;73.25;52173.09;5099838;28;20671;-83
2023/08/07 01:47:15;;;;;;;3.50;1.37;;;;;;;-145.69;73.15;52161.19;5097569;28;20236;-83
2023/08/07 01:49:42;;;;;;;4.57;1.90;;;;;;;-145.69;73.71;52137.44;5098374;28;20202;-81
2023/08/07 01:52:11;;;;;;;3.67;2.10;;;;;;;-145.69;74.51;52169.13;5098960;28;20561;-82
2023/08/07 01:54:39;;;;;;;4.23;1.70;;;;;;;-145.69;74.84;52167.13;5100550;28;20289;-82
2023/08/07 01:57:06;;;;;;;3.63;1.60;;;;;;;-145.69;75.35;52181.00;5099471;28;20202;-82
2023/08/07 01:59:32;;;;;;;4.00;1.73;;;;;;;-145.69;75.70;52179.03;5100592;28;20293;-83
2023/08/07 02:01:59;;;;;;;10.17;2.33;;;;;;;-145.69;75.32;52169.13;5100752;28;20197;-82
2023/08/07 02:04:25;;;;;;;2.50;1.80;;;;;;;-145.69;76.06;52186.94;5101500;28;20213;-83
2023/08/07 02:06:52;;;;;;;2.90;1.90;;;;;;;-145.69;76.09;52173.09;5098291;28;20201;-82
2023/08/07 02:09:18;;;;;;;3.10;1.77;;;;;;;-145.69;76.45;52155.25;5099242;28;20213;-84
2023/08/07 02:11:46;;;;;;;5.50;2.30;;;;;;;-145.69;77.22;52171.09;5098395;28;20225;-82
2023/08/07 02:14:13;;;;;;;5.03;2.00;;;;;;;-145.69;76.80;52218.63;5099419;28;20205;-80
2023/08/07 02:16:39;;;;;;;4.70;2.10;;;;;;;-145.69;77.13;52177.03;5098751;28;20239;-82
2023/08/07 02:19:05;;;;;;;6.63;2.10;;;;;;;-145.69;76.61;52167.13;5099119;28;20198;-80
2023/08/07 02:21:32;;;;;;;3.57;1.97;;;;;;;-145.69;76.07;52181.00;5097629;28;20198;-81
2023/08/07 02:23:59;;;;;;;6.13;2.50;;;;;;;-145.69;75.94;52147.34;5098938;28;20200;-82
2023/08/07 02:26:25;;;;;;;3.10;2.00;;;;;;;-145.69;75.45;52184.97;5100681;28;20202;-81
2023/08/07 02:28:53;;;;;;;7.23;2.30;;;;;;;-145.69;74.96;52171.09;5099677;28;20202;-82
2023/08/07 02:31:19;;;;;;;2.27;1.87;;;;;;;-145.69;74.79;52192.88;5099974;28;20233;-82
2023/08/07 02:33:46;;;;;;;6.07;1.63;;;;;;;-145.69;74.19;52129.50;5099242;28;20198;-82
2023/08/07 02:36:12;;;;;;;2.67;1.90;;;;;;;-145.69;74.09;52165.16;5098552;28;20237;-82
2023/08/07 02:38:39;;;;;;;3.07;1.73;;;;;;;-145.69;74.24;52173.09;5096820;28;20198;-82
2023/08/07 02:41:05;;;;;;;4.67;2.20;;;;;;;-145.69;74.03;52167.13;5097891;28;20210;-82
2023/08/07 02:43:33;;;;;;;2.83;2.10;;;;;;;-145.69;73.38;52169.13;5098892;28;20205;-82
2023/08/07 02:46:00;;;;;;;3.77;1.80;;;;;;;-145.69;72.88;52165.16;5096500;28;20198;-81
2023/08/07 02:48:27;;;;;;;5.13;2.10;;;;;;;-145.69;73.00;52143.38;5097128;28;20194;-82
2023/08/07 02:50:53;;;;;;;3.30;1.77;;;;;;;-145.69;72.51;52159.22;5096901;28;20233;-82
2023/08/07 02:53:20;;;;;;;7.80;1.90;;;;;;;-145.69;72.74;52147.34;5097166;28;20656;-83
2023/08/07 02:55:46;;;;;;;3.80;1.80;;;;;;;-145.69;72.63;52159.22;5096288;28;20193;-81
2023/08/07 02:58:13;;;;;;;3.10;1.73;;;;;;;-145.69;72.61;52161.19;5098769;28;20259;-82
2023/08/07 03:00:39;;;;;;;8.77;1.73;;;;;;;-145.69;72.17;52145.34;5098285;28;20573;-81
2023/08/07 03:03:07;;;;;;;2.40;1.77;;;;;;;-145.69;72.06;52133.47;5098647;28;20722;-82
2023/08/07 03:05:34;;;;;;;5.53;1.90;;;;;;;-145.69;71.62;52186.94;5097867;28;20680;-82
2023/08/07 03:08:00;;;;;;;3.33;1.73;;;;;;;-145.69;71.59;52181.00;5098626;28;20224;-80
2023/08/07 03:10:27;;;;;;;3.07;2.00;;;;;;;-145.69;72.29;52159.22;5099833;28;20226;-83
2023/08/07 03:12:53;;;;;;;6.20;2.27;;;;;;;-145.69;72.65;52149.31;5097293;28;20201;-82
2023/08/07 03:15:20;;;;;;;3.50;1.70;;;;;;;-145.69;72.69;52192.88;5097773;28;20230;-82
2023/08/07 03:17:46;;;;;;;3.60;1.87;;;;;;;-145.69;72.49;52175.06;5096509;28;20564;-82
2023/08/07 03:20:15;;;;;;;3.17;1.47;;;;;;;-145.69;72.65;52143.38;5096551;28;20224;-83
2023/08/07 03:22:41;;;;;;;2.90;1.50;;;;;;;-145.69;72.47;52169.13;5099934;28;20198;-82
2023/08/07 03:25:08;;;;;;;3.50;1.90;;;;;;;-145.69;73.29;52167.13;5098196;28;20205;-82
2023/08/07 03:27:35;;;;;;;3.53;1.50;;;;;;;-145.69;73.77;52159.22;5098037;28;20384;-82
2023/08/07 03:30:01;;;;;;;7.13;1.97;;;;;;;-145.69;74.82;52173.09;5098319;28;20190;-83
2023/08/07 03:32:28;;;;;;;2.60;1.57;;;;;;;-145.69;74.26;52200.81;5100959;28;20338;-82
2023/08/07 03:34:54;;;;;;;3.67;1.70;;;;;;;-145.69;74.30;52153.28;5102324;28;20202;-82
2023/08/07 03:37:22;;;;;;;5.63;1.90;;;;;;;-145.69;74.93;52188.91;5097349;28;20205;-82
2023/08/07 03:39:48;;;;;;;4.33;1.80;;;;;;;-145.69;74.91;52163.19;5096788;28;20186;-82
2023/08/07 03:42:15;;;;;;;3.60;1.43;;;;;;;-145.69;74.95;52147.34;5096557;28;20214;-82
2023/08/07 03:44:42;;;;;;;3.70;1.80;;;;;;;-145.69;74.73;52190.91;5098644;28;20733;-82
2023/08/07 03:47:08;;;;;;;8.17;2.10;;;;;;;-145.69;74.34;52167.13;5098389;28;20565;-82
2023/08/07 03:49:35;;;;;;;3.80;1.90;;;;;;;-145.69;74.53;52177.03;5098160;28;20284;-82
2023/08/07 03:52:01;;;;;;;9.37;1.97;;;;;;;-145.69;74.76;52186.94;5097210;28;20222;-82
2023/08/07 03:54:29;;;;;;;4.67;1.50;;;;;;;-145.69;74.54;52145.34;5099260;28;20194;-82
2023/08/07 03:56:55;;;;;;;3.37;1.70;;;;;;;-145.69;74.34;52192.88;5098404;28;20202;-82
2023/08/07 03:59:22;;;;;;;2.47;1.50;;;;;;;-145.69;74.36;52173.09;5097688;28;20205;-82
2023/08/07 04:01:48;;;;;;;4.50;1.70;;;;;;;-145.69;74.65;52186.94;5099203;28;20197;-82
2023/08/07 04:04:15;;;;;;;2.70;1.67;;;;;;;-145.69;75.56;52181.00;5096095;28;20201;-82
2023/08/07 04:06:42;;;;;;;3.43;1.77;;;;;;;-145.69;74.15;52165.16;5098293;28;20202;-81
2023/08/07 04:09:10;;;;;;;5.07;2.03;;;;;;;-145.69;73.45;52190.91;5097527;28;20251;-82
2023/08/07 04:11:38;;;;;;;3.93;2.17;;;;;;;-145.69;72.89;52194.88;5088136;28;20230;-82
2023/08/07 04:14:05;;;;;;;3.30;1.73;;;;;;;-145.69;73.82;52202.78;5096517;28;20205;-82
2023/08/07 04:16:32;;;;;;;7.73;1.80;;;;;;;-145.69;72.35;52188.91;5100754;28;20240;-82
2023/08/07 04:18:58;;;;;;;3.40;1.90;;;;;;;-145.69;73.24;52194.88;5101650;28;20194;-82
2023/08/07 04:21:25;;;;;;;3.37;1.73;;;;;;;-145.69;73.13;52171.09;5101533;28;20198;-82
2023/08/07 04:23:51;;;;;;;4.10;1.97;;;;;;;-145.69;72.66;52194.88;5101576;28;20565;-82
2023/08/07 04:26:18;;;;;;;3.83;1.80;;;;;;;-145.69;72.63;52173.09;5100140;28;20205;-82
2023/08/07 04:28:46;;;;;;;6.77;1.93;;;;;;;-145.69;72.53;52163.19;5103991;28;20201;-83
2023/08/07 04:31:12;;;;;;;4.23;1.90;;;;;;;-145.69;72.80;52210.72;5103989;28;20229;-83
2023/08/07 04:33:39;;;;;;;2.73;1.80;;;;;;;-145.69;72.63;52186.94;5102683;28;20557;-83
2023/08/07 04:36:06;;;;;;;6.30;1.70;;;;;;;-145.69;72.89;52190.91;5104445;28;20201;-82
2023/08/07 04:38:33;;;;;;;5.43;1.80;;;;;;;-145.69;72.73;52167.13;5102048;28;20284;-82
2023/08/07 04:40:59;;;;;;;3.50;1.93;;;;;;;-145.69;72.82;52163.19;5105485;28;20198;-84
2023/08/07 04:43:27;;;;;;;2.70;1.60;;;;;;;-145.69;72.36;52179.03;5101630;28;20205;-83
2023/08/07 04:45:55;;;;;;;3.03;1.53;;;;;;;-145.69;72.04;52194.88;5100935;28;20208;-83
2023/08/07 04:48:25;;;;;;;3.20;2.00;;;;;;;-145.69;72.61;52149.31;5100007;28;20201;-83
2023/08/07 04:50:51;;;;;;;3.30;2.10;;;;;;;-145.69;72.81;52177.03;5099923;28;20236;-83
2023/08/07 04:53:18;;;;;;;3.10;1.83;;;;;;;-145.69;73.71;52139.41;5099605;28;20204;-83
2023/08/07 04:55:44;;;;;;;5.60;2.00;;;;;;;-145.69;74.13;52173.09;5097840;28;20198;-82
2023/08/07 04:58:10;;;;;;;4.87;1.67;;;;;;;-145.69;75.18;52196.84;5098968;28;20202;-83
2023/08/07 05:00:37;;;;;;;6.97;1.97;;;;;;;-145.69;75.25;52186.94;5100257;28;20202;-82
2023/08/07 05:03:05;;;;;;;4.85;1.60;;;;;;;-145.69;77.54;52194.88;5095595;28;20431;-82
2023/08/07 05:05:32;;;;;;;5.63;1.67;;;;;;;-145.69;77.44;52175.06;5097690;28;20190;-83
2023/08/07 05:07:59;;;;;;;3.53;1.70;;;;;;;-145.69;77.37;52186.94;5099629;28;20522;-83
2023/08/07 05:10:26;;;;;;;7.10;1.77;;;;;;;-145.69;76.46;52184.97;5097240;28;20251;-82
2023/08/07 05:12:55;;;;;;;3.57;1.77;;;;;;;-145.69;76.46;52186.94;5096985;28;20217;-82
2023/08/07 05:15:21;;;;;;;2.63;1.80;;;;;;;-145.69;75.70;52175.06;5099208;28;20225;-83
2023/08/07 05:17:48;;;;;;;3.90;1.57;;;;;;;-145.69;75.38;52194.88;5101911;28;20190;-82
2023/08/07 05:20:16;;;;;;;4.13;1.97;;;;;;;-145.69;75.28;52175.06;5098939;28;20289;-82
2023/08/07 05:22:42;;;;;;;3.70;1.70;;;;;;;-145.69;73.83;52157.25;5099024;28;20194;-82
2023/08/07 05:25:11;;;;;;;2.37;1.57;;;;;;;-145.69;73.65;52171.09;5099073;28;20229;-83
2023/08/07 05:27:37;;;;;;;6.13;1.60;;;;;;;-145.69;71.84;52139.41;5098094;28;20275;-83
2023/08/07 05:30:05;;;;;;;2.40;1.70;;;;;;;-145.69;70.22;52177.03;5099187;28;20748;-82
2023/08/07 05:32:32;;;;;;;5.50;2.10;;;;;;;-145.69;71.70;52173.09;5102106;28;20226;-82
2023/08/07 05:34:59;;;;;;;5.13;1.50;;;;;;;-145.69;70.38;52190.91;5100594;28;20203;-83
2023/08/07 05:37:27;;;;;;;2.97;1.60;;;;;;;-145.69;67.72;52147.34;5102519;28;20213;-82
2023/08/07 05:39:53;;;;;;;3.63;1.93;;;;;;;-145.69;67.31;52194.88;5099101;28;20198;-82
2023/08/07 05:42:19;;;;;;;3.50;1.40;;;;;;;-145.69;69.33;52165.16;5096892;28;20199;-83
2023/08/07 05:44:46;;;;;;;3.40;1.70;;;;;;;-145.69;69.59;52173.09;5096462;28;20205;-83
2023/08/07 05:47:12;;;;;;;4.13;1.63;;;;;;;-145.69;68.19;52151.28;5095720;28;20201;-82
2023/08/07 05:49:39;;;;;;;2.20;1.63;;;;;;;-145.69;66.56;52163.19;5099514;28;20198;-83
2023/08/07 05:52:07;;;;;;;4.33;1.77;;;;;;;-145.69;66.36;52155.25;5098653;28;20279;-83
2023/08/07 05:54:35;;;;;;;4.47;1.80;;;;;;;-145.69;66.38;52163.19;5099541;28;20198;-82
2023/08/07 05:57:01;;;;;;;3.03;1.70;;;;;;;-145.69;65.83;52141.41;5097967;28;20198;-82
2023/08/07 05:59:28;;;;;;;4.45;2.10;;;;;;;-145.69;66.26;52139.41;5098914;28;20221;-82
2023/08/07 06:01:55;;;;;;;5.03;1.63;;;;;;;-145.69;65.27;52127.53;5098210;28;20584;-83
2023/08/07 06:04:22;;;;;;;5.40;1.80;;;;;;;-145.69;64.69;52139.41;5096155;28;20204;-82
2023/08/07 06:06:49;;;;;;;4.03;1.43;;;;;;;-145.69;63.89;52155.25;5098123;28;20197;-82
2023/08/07 06:09:15;;;;;;;3.20;1.40;;;;;;;-145.69;63.44;52123.56;5097991;28;20201;-83
2023/08/07 06:11:43;;;;;;;2.80;1.40;;;;;;;-145.69;63.55;52125.56;5096119;28;20221;-82
2023/08/07 06:14:10;;;;;;;4.33;1.53;;;;;;;-145.69;63.38;52167.13;5096717;28;20213;-83
2023/08/07 06:16:36;;;;;;;3.60;1.67;;;;;;;-145.69;61.59;52115.66;5096868;28;20268;-82
2023/08/07 06:19:04;;;;;;;2.40;1.53;;;;;;;-145.69;61.84;52143.38;5097371;28;20202;-82
2023/08/07 06:21:30;;;;;;;2.43;1.80;;;;;;;-145.69;61.55;52105.75;5086123;28;20257;-83
2023/08/07 06:23:57;;;;;;;2.90;1.50;;;;;;;-145.69;60.91;52127.53;5074708;28;20203;-83
2023/08/07 06:26:24;;;;;;;4.30;1.80;;;;;;;-145.69;59.60;52127.53;5082684;28;20195;-83
2023/08/07 06:28:51;;;;;;;4.03;1.40;;;;;;;-145.69;58.63;52111.69;5095961;28;20198;-82
2023/08/07 06:31:19;;;;;;;8.23;1.35;;;;;;;-145.69;58.53;52117.63;5096044;28;20209;-82
2023/08/07 06:33:45;;;;;;;3.47;1.50;;;;;;;-145.69;57.74;52103.78;5094858;28;20198;-82
2023/08/07 06:36:12;;;;;;;2.33;1.30;;;;;;;-145.69;57.03;52127.53;5094314;28;20668;-82
2023/08/07 06:38:38;;;;;;;2.60;1.20;;;;;;;-145.69;55.29;52097.84;5093584;28;20209;-81
2023/08/07 06:41:05;;;;;;;2.28;1.00;;;;;;;-145.69;55.66;52115.66;5095597;28;20668;-83
2023/08/07 06:43:32;;;;;;;2.55;1.58;;;;;;;-145.69;56.22;52115.66;5094515;28;20221;-82
2023/08/07 06:46:00;;;;;;;2.53;1.50;;;;;;;-145.69;55.11;52133.47;5095553;28;20198;-82
2023/08/07 06:48:26;;;;;;;3.70;1.48;;;;;;;-145.69;52.63;52087.94;5095852;28;20194;-82
2023/08/07 06:50:53;;;;;;;2.40;1.20;;;;;;;-145.69;54.67;52103.78;5097553;28;20198;-83
2023/08/07 06:53:20;;;;;;;2.17;1.50;;;;;;;-145.69;53.96;52089.91;5094884;28;20229;-83
2023/08/07 06:55:47;;;;;;;2.10;1.40;;;;;;;-145.69;52.19;52115.66;5096428;28;20202;-82
2023/08/07 06:58:13;;;;;;;3.78;1.70;;;;;;;-145.69;52.67;52095.84;5096479;28;20194;-83
2023/08/07 07:00:40;;;;;;;2.03;1.20;;;;;;;-145.69;53.68;52117.63;5096861;28;20194;-83
2023/08/07 07:03:09;;;;;;;2.22;1.30;;;;;;;-145.69;53.21;52089.91;5096790;28;20198;-83
2023/08/07 07:05:36;;;;;;;2.20;1.33;;;;;;;-145.69;53.88;52085.94;5095890;28;20197;-83
2023/08/07 07:08:03;;;;;;;1.30;1.10;;;;;;;-145.69;52.55;52123.56;5095286;28;20561;-83
2023/08/07 07:10:31;;;;;;;2.55;1.10;;;;;;;-145.69;52.90;52093.88;5095151;28;20656;-82
2023/08/07 07:12:58;;;;;;;1.92;1.20;;;;;;;-145.69;51.13;52099.81;5096145;28;20316;-82
2023/08/07 07:15:24;;;;;;;1.83;1.10;;;;;;;-145.69;51.77;52103.78;5095407;28;20221;-82
2023/08/07 07:17:50;;;;;;;3.58;1.50;;;;;;;-145.69;52.01;52123.56;5095516;28;20198;-83
2023/08/07 07:20:19;;;;;;;3.22;1.30;;;;;;;-145.69;52.77;52107.72;5095137;28;20191;-82
2023/08/07 07:22:45;;;;;;;2.60;1.27;;;;;;;-145.69;53.58;52083.97;5095949;28;20209;-82
2023/08/07 07:25:12;;;;;;;1.92;1.25;;;;;;;-145.69;54.45;52068.13;5094743;28;20194;-82
2023/08/07 07:27:39;;;;;;;2.38;1.33;;;;;;;-145.69;54.14;52097.84;5095158;28;20213;-82
2023/08/07 07:30:07;;;;;;;3.28;1.30;;;;;;;-145.69;54.59;52125.56;5094663;28;20207;-82
2023/08/07 07:32:34;;;;;;;2.58;1.55;;;;;;;-145.69;56.41;52093.88;5097403;28;20230;-82
2023/08/07 07:35:01;;;;;;;2.22;1.25;;;;;;;-145.69;58.08;52111.69;5095879;28;20202;-82
2023/08/07 07:37:32;;;;;;;3.20;1.60;;;;;;;-145.69;58.06;52139.41;5098839;28;20201;-84
2023/08/07 07:39:58;;;;;;;2.72;1.27;;;;;;;-145.69;60.63;52123.56;5098904;28;20229;-82
2023/08/07 07:42:25;;;;;;;4.53;1.50;;;;;;;-145.69;61.34;52135.47;5095357;28;20217;-82
2023/08/07 07:44:51;;;;;;;2.70;1.60;;;;;;;-145.69;62.08;52111.69;5098579;28;20193;-81
2023/08/07 07:47:18;;;;;;;3.50;1.73;;;;;;;-145.69;62.14;52107.72;5104860;28;20201;-82
2023/08/07 07:49:47;;;;;;;2.53;1.60;;;;;;;-145.69;62.18;52123.56;5104281;28;20213;-83
2023/08/07 07:52:13;;;;;;;1.65;1.30;;;;;;;-145.69;62.47;52099.81;5109381;28;20217;-83
2023/08/07 07:54:41;;;;;;;2.05;1.27;;;;;;;-145.69;63.11;52105.75;5106535;28;20209;-82
2023/08/07 07:57:08;;;;;;;4.47;1.45;;;;;;;-145.69;63.18;52111.69;5102712;28;20208;-84
2023/08/07 07:59:34;;;;;;;6.57;1.80;;;;;;;-145.69;63.56;52135.47;5108027;28;20210;-83
2023/08/07 08:02:01;;;;;;;6.55;1.50;;;;;;;-145.69;64.22;52131.50;5108122;28;20208;-83
2023/08/07 08:04:28;;;;;;;2.08;1.70;;;;;;;-145.69;65.48;52089.91;5101563;28;20201;-84
2023/08/07 08:06:54;;;;;;;4.25;1.23;;;;;;;-145.69;63.11;52155.25;5107340;28;20219;-82
2023/08/07 08:09:21;;;;;;;4.40;1.90;;;;;;;-145.69;63.88;52125.56;5109478;28;20201;-83
2023/08/07 08:11:48;;;;;;;5.10;1.80;;;;;;;-145.69;63.21;52125.56;5103841;28;20661;-81
2023/08/07 08:14:16;;;;;;;2.78;1.70;;;;;;;-145.69;64.58;52119.63;5103764;28;20190;-83
2023/08/07 08:16:42;;;;;;;3.60;1.50;;;;;;;-145.69;64.62;52107.72;5108868;28;20241;-83
2023/08/07 08:19:09;;;;;;;3.38;1.70;;;;;;;-145.69;65.44;52137.44;5105706;28;20206;-82
2023/08/07 08:21:36;;;;;;;2.33;1.60;;;;;;;-145.69;64.52;52085.94;5084538;28;20203;-83
2023/08/07 08:24:02;;;;;;;3.30;1.60;;;;;;;-145.69;59.52;52123.56;5102052;28;20231;-82
2023/08/07 08:26:29;;;;;;;3.45;1.48;;;;;;;-145.69;58.85;52068.13;5103184;28;20202;-84
2023/08/07 08:28:57;;;;;;;2.30;1.65;;;;;;;-145.69;58.49;52083.97;5105560;28;20244;-83
2023/08/07 08:31:23;;;;;;;2.95;1.42;;;;;;;-145.69;59.64;52087.94;5107097;28;20202;-82
2023/08/07 08:33:50;;;;;;;4.40;1.80;;;;;;;-145.69;60.38;52082.00;5098588;28;20287;-82
2023/08/07 08:36:16;;;;;;;3.60;1.38;;;;;;;-145.69;61.77;52125.56;5101699;28;20206;-81
2023/08/07 08:38:45;;;;;;;3.20;1.70;;;;;;;-145.69;62.18;52115.66;5099803;28;20197;-81
2023/08/07 08:41:12;;;;;;;3.25;1.80;;;;;;;-145.69;64.90;52097.84;5102674;28;20194;-83
2023/08/07 08:43:40;;;;;;;4.70;2.00;;;;;;;-145.69;64.99;52076.03;5106994;28;20198;-82
2023/08/07 08:46:09;;;;;;;3.05;1.60;;;;;;;-145.69;61.54;52089.91;5099296;28;20205;-83
2023/08/07 08:48:39;;;;;;;2.08;1.50;;;;;;;-145.69;61.40;52072.09;5100735;28;20206;-84
2023/08/07 08:51:07;;;;;;;5.50;1.50;;;;;;;-145.69;59.69;52068.13;5099669;28;20212;-84
2023/08/07 08:53:34;;;;;;;1.67;1.30;;;;;;;-145.69;58.07;52099.81;5099794;28;20309;-83
2023/08/07 08:56:01;;;;;;;1.90;1.38;;;;;;;-145.69;55.57;52060.22;5097771;28;20198;-84
2023/08/07 08:58:28;;;;;;;2.95;1.50;;;;;;;-145.69;54.65;52060.22;5095852;28;20247;-81
2023/08/07 09:00:55;;;;;;;6.80;1.92;;;;;;;-145.69;54.39;52095.84;5096143;28;20552;-82
2023/08/07 09:03:24;;;;;;;3.53;1.40;;;;;;;-145.69;53.49;52046.34;5096094;28;20552;-82
2023/08/07 09:05:53;;;;;;;2.42;1.30;;;;;;;-145.69;54.08;52034.47;5095777;28;20206;-81
2023/08/07 09:08:20;;;;;;;2.80;1.50;;;;;;;-145.69;54.63;52056.25;5096060;28;20198;-81
2023/08/07 09:10:46;;;;;;;3.90;1.42;;;;;;;-145.69;52.46;52054.25;5095889;28;20550;-82
2023/08/07 09:13:15;;;;;;;4.05;1.60;;;;;;;-145.69;50.97;52048.31;5096786;28;20233;-81
2023/08/07 09:15:47;;;;;;;2.75;1.42;;;;;;;-145.69;51.32;52060.22;5095471;28;20440;-81
2023/08/07 09:18:14;;;;;;;2.15;1.50;;;;;;;-145.69;49.13;52056.25;5095808;28;20202;-82
2023/08/07 09:20:43;;;;;;;3.60;1.33;;;;;;;-145.69;49.38;52070.09;5095289;28;20194;-81
2023/08/07 09:23:09;;;;;;;1.88;1.50;;;;;;;-145.69;47.85;52048.31;5096011;28;20209;-82
2023/08/07 09:25:36;;;;;;;2.33;1.40;;;;;;;-145.69;47.07;52016.66;5095332;28;20672;-81
2023/08/07 09:28:04;;;;;;;2.15;1.30;;;;;;;-145.69;46.67;52048.31;5095168;28;20205;-82
2023/08/07 09:30:32;;;;;;;3.55;1.00;;;;;;;-145.69;47.76;52080.00;5094855;28;20247;-80
2023/08/07 09:32:59;;;;;;;2.47;1.10;;;;;;;-145.69;45.72;52056.25;5096035;28;20224;-81
2023/08/07 09:35:26;;;;;;;1.48;1.20;;;;;;;-145.69;47.55;52074.06;5095268;28;20225;-81
2023/08/07 09:37:53;;;;;;;1.60;1.17;;;;;;;-145.69;47.65;52034.47;5095044;28;20562;-81
2023/08/07 09:40:20;;;;;;;2.80;1.23;;;;;;;-145.69;45.50;52008.72;5091803;28;20213;-82
2023/08/07 09:42:52;;;;;;;1.92;0.95;;;;;;;-145.69;44.77;52032.47;5095414;28;20198;-82
2023/08/07 09:45:22;;;;;;;1.35;0.93;;;;;;;-145.69;42.55;52044.38;5094777;28;20642;-81
2023/08/07 09:47:58;;;;;;;1.65;0.90;;;;;;;-145.69;43.56;52028.53;5095327;28;20202;-81
2023/08/07 09:50:25;;;;;;;2.17;1.23;;;;;;;-145.69;45.07;52016.66;5094713;28;20197;-81
2023/08/07 09:52:52;;;;;;;1.75;1.13;;;;;;;-145.69;43.51;52006.75;5094992;28;20225;-82
2023/08/07 09:55:20;;;;;;;2.13;1.15;;;;;;;-145.69;44.25;52024.56;5094994;28;20213;-82
2023/08/07 09:57:46;;;;;;;2.78;1.00;;;;;;;-145.69;43.58;52010.69;5095279;28;20553;-82
2023/08/07 10:00:15;;;;;;;1.20;0.90;;;;;;;-145.69;40.54;52026.53;5093834;28;20194;-83
2023/08/07 10:02:41;;;;;;;1.30;1.08;;;;;;;-145.69;42.17;52020.59;5095664;28;20247;-81
2023/08/07 10:05:10;;;;;;;1.98;1.02;;;;;;;-145.69;43.13;52024.56;5094583;28;20649;-81
2023/08/07 10:07:38;;;;;;;2.55;1.00;;;;;;;-145.69;42.67;52040.41;5094386;28;20599;-81
2023/08/07 10:10:06;;;;;;;1.92;1.25;;;;;;;-145.69;43.79;52034.47;5094842;28;20202;-82
2023/08/07 10:12:34;;;;;;;3.30;1.13;;;;;;;-145.69;44.02;52024.56;5094729;28;20221;-81
2023/08/07 10:15:02;;;;;;;2.17;1.30;;;;;;;-145.69;43.76;52018.63;5093427;28;20233;-82
2023/08/07 10:17:28;;;;;;;2.15;1.20;;;;;;;-145.69;43.94;52016.66;5093210;28;20243;-81
2023/08/07 10:19:55;;;;;;;6.43;1.50;;;;;;;-145.69;42.67;52028.53;5094614;28;20193;-82
2023/08/07 10:22:25;;;;;;;1.92;1.02;;;;;;;-145.69;42.05;52012.69;5091528;28;20234;-83
2023/08/07 10:24:54;;;;;;;2.55;1.20;;;;;;;-145.69;41.24;51986.94;5094396;28;20202;-82
2023/08/07 10:27:24;;;;;;;2.63;0.80;;;;;;;-145.69;41.23;52004.75;5094128;28;20198;-83
2023/08/07 10:29:54;;;;;;;1.92;1.13;;;;;;;-145.69;41.98;52016.66;5094014;28;20615;-83
2023/08/07 10:32:25;;;;;;;2.47;1.27;;;;;;;-145.69;41.88;52004.75;5093780;28;20685;-82
2023/08/07 10:34:51;;;;;;;2.00;1.17;;;;;;;-145.69;42.31;52012.69;5094473;28;20213;-83
2023/08/07 10:37:34;;;;;;;1.50;1.02;;;;;;;-145.69;41.69;52032.47;5094144;28;20205;-82
2023/08/07 10:40:04;;;;;;;1.70;1.10;;;;;;;-145.69;43.28;52036.44;5090433;28;20198;-83
2023/08/07 10:42:50;;;;;;;2.58;1.40;;;;;;;-145.69;44.30;52036.44;5094391;28;20671;-82
2023/08/07 10:45:21;;;;;;;1.80;1.20;;;;;;;-145.69;44.00;52008.72;5094442;28;20202;-82
2023/08/07 10:47:57;;;;;;;2.65;1.17;;;;;;;-145.69;43.86;52024.56;5074581;28;20201;-83
2023/08/07 10:50:28;;;;;;;3.25;1.25;;;;;;;-145.69;42.53;52000.81;5075750;28;20203;-83
2023/08/07 10:52:55;;;;;;;2.00;1.08;;;;;;;-145.69;42.51;52020.59;5094065;28;20227;-82
2023/08/07 10:55:23;;;;;;;2.65;0.93;;;;;;;-145.69;44.11;52032.47;5094275;28;20251;-83
2023/08/07 10:57:49;;;;;;;1.90;1.20;;;;;;;-145.69;41.98;52000.81;5093793;28;20206;-84
2023/08/07 11:00:16;;;;;;;2.30;1.00;;;;;;;-145.69;40.00;52008.72;5093998;28;20205;-84
2023/08/07 11:02:49;;;;;;;1.85;0.80;;;;;;;-145.69;40.80;52006.75;5094713;28;20205;-83
2023/08/07 11:05:15;;;;;;;2.10;1.10;;;;;;;-145.69;40.10;51982.97;5092272;28;20194;-84
2023/08/07 11:07:44;;;;;;;1.88;0.90;;;;;;;-145.69;37.36;51981.00;5094075;28;20206;-85
2023/08/07 11:10:17;;;;;;;2.30;0.93;;;;;;;-145.69;38.20;51957.25;5094110;28;20296;-85
2023/08/07 11:12:44;;;;;;;1.17;0.80;;;;;;;-145.69;37.48;51965.16;5094366;28;20198;-82
2023/08/07 11:15:14;;;;;;;1.92;1.00;;;;;;;-145.69;37.58;51963.19;5093468;28;20313;-82
2023/08/07 11:17:41;;;;;;;2.08;0.90;;;;;;;-145.69;36.84;51945.34;5093861;28;20625;-82